createdAt,value
2023-02-12T00:01:25.997Z,101614.28
2023-02-12T00:03:53.513Z,101624.72
2023-02-12T00:06:21.112Z,101621.22
2023-02-12T00:08:52.370Z,101617.19
2023-02-12T00:11:25.374Z,101626.94
2023-02-12T00:13:53.621Z,101633.00
2023-02-12T00:16:26.386Z,101625.66
2023-02-12T00:18:56.689Z,101629.13
2023-02-12T00:21:25.103Z,101628.41
2023-02-12T00:23:52.387Z,101622.53
2023-02-12T00:26:22.888Z,101624.19
2023-02-12T00:28:52.360Z,101620.50
2023-02-12T00:31:27.453Z,101617.75
2023-02-12T00:33:59.317Z,101622.34
2023-02-12T00:36:31.084Z,101615.19
2023-02-12T00:39:00.131Z,101615.91
2023-02-12T00:41:27.970Z,101619.22
2023-02-12T00:43:55.658Z,101612.59
2023-02-12T00:46:23.594Z,101611.13
2023-02-12T00:48:50.921Z,101607.44
2023-02-12T00:51:20.769Z,101614.44
2023-02-12T00:53:47.914Z,101616.63
2023-02-12T00:56:15.149Z,101613.34
2023-02-12T00:58:42.302Z,101617.00
2023-02-12T01:01:09.689Z,101616.47
2023-02-12T01:03:37.384Z,101617.00
2023-02-12T01:06:06.067Z,101609.09
2023-02-12T01:08:33.373Z,101607.28
2023-02-12T01:11:04.659Z,101609.66
2023-02-12T01:13:34.207Z,101615.16
2023-02-12T01:16:09.184Z,101613.69
2023-02-12T01:18:38.235Z,101619.94
2023-02-12T01:21:23.636Z,101619.03
2023-02-12T01:23:51.183Z,101610.94
2023-02-12T01:26:21.032Z,101606.91
2023-02-12T01:28:56.376Z,101608.53
2023-02-12T01:31:28.721Z,101615.88
2023-02-12T01:33:59.954Z,101615.13
2023-02-12T01:36:30.075Z,101616.22
2023-02-12T01:39:02.771Z,101615.50
2023-02-12T01:41:42.361Z,101613.84
2023-02-12T01:44:19.538Z,101615.69
2023-02-12T01:46:50.601Z,101612.38
2023-02-12T01:49:30.671Z,101601.16
2023-02-12T01:52:20.206Z,101605.00
2023-02-12T01:54:49.786Z,101601.53
2023-02-12T01:57:18.209Z,101591.44
2023-02-12T01:59:50.319Z,101593.63
2023-02-12T02:02:17.792Z,101591.44
2023-02-12T02:04:51.819Z,101586.13
2023-02-12T02:07:19.393Z,101576.72
2023-02-12T02:09:46.957Z,101581.53
2023-02-12T02:12:33.032Z,101579.16
2023-02-12T02:15:02.290Z,101591.63
2023-02-12T02:18:19.017Z,101589.44
2023-02-12T02:21:53.496Z,101581.72
2023-02-12T02:25:02.001Z,101586.63
2023-02-12T02:27:59.526Z,101581.13
2023-02-12T02:31:18.432Z,101568.41
2023-02-12T02:34:18.096Z,101576.31
2023-02-12T02:37:14.628Z,101569.53
2023-02-12T02:40:14.977Z,101561.47
2023-02-12T02:43:09.818Z,101552.31
2023-02-12T02:46:07.063Z,101550.66
2023-02-12T02:48:47.022Z,101553.03
2023-02-12T02:51:25.549Z,101552.44
2023-02-12T02:54:05.722Z,101553.31
2023-02-12T02:56:38.513Z,101558.44
2023-02-12T02:59:13.723Z,101543.22
2023-02-12T03:01:55.991Z,101533.53
2023-02-12T03:04:42.595Z,101530.25
2023-02-12T03:07:42.221Z,101522.19
2023-02-12T03:10:19.049Z,101524.00
2023-02-12T03:13:14.749Z,101525.50
2023-02-12T03:16:19.014Z,101526.19
2023-02-12T03:19:05.331Z,101529.69
2023-02-12T03:21:55.462Z,101532.78
2023-02-12T03:24:36.292Z,101539.03
2023-02-12T03:27:27.673Z,101544.72
2023-02-12T03:29:55.575Z,101534.63
2023-02-12T03:32:58.454Z,101531.88
2023-02-12T03:35:43.372Z,101534.75
2023-02-12T03:38:34.166Z,101532.19
2023-02-12T03:41:35.698Z,101545.53
2023-02-12T03:44:23.012Z,101535.25
2023-02-12T03:47:08.146Z,101537.19
2023-02-12T03:50:11.122Z,101540.47
2023-02-12T03:52:38.366Z,101536.41
2023-02-12T03:55:06.821Z,101541.16
2023-02-12T03:57:44.653Z,101539.72
2023-02-12T04:00:19.652Z,101539.91
2023-02-12T04:02:48.883Z,101542.47
2023-02-12T04:05:22.420Z,101539.53
2023-02-12T04:07:51.707Z,101529.25
2023-02-12T04:10:27.815Z,101541.34
2023-02-12T04:13:43.348Z,101536.56
2023-02-12T04:16:50.045Z,101537.94
2023-02-12T04:20:00.532Z,101544.41
2023-02-12T04:23:31.006Z,101538.94
2023-02-12T04:26:35.932Z,101544.84
2023-02-12T04:29:31.547Z,101540.03
2023-02-12T04:32:17.590Z,101538.94
2023-02-12T04:35:18.645Z,101544.41
2023-02-12T04:38:23.252Z,101541.25
2023-02-12T04:40:51.619Z,101539.44
2023-02-12T04:43:36.788Z,101542.34
2023-02-12T04:46:07.781Z,101542.94
2023-02-12T04:48:49.374Z,101548.00
2023-02-12T04:51:16.513Z,101546.78
2023-02-12T04:53:43.670Z,101549.00
2023-02-12T04:56:14.396Z,101548.81
2023-02-12T04:58:42.574Z,101558.81
2023-02-12T05:01:10.617Z,101550.94
2023-02-12T05:03:38.282Z,101542.94
2023-02-12T05:06:08.329Z,101535.25
2023-02-12T05:08:36.114Z,101526.72
2023-02-12T05:11:09.321Z,101526.34
2023-02-12T05:13:38.009Z,101539.44
2023-02-12T05:16:07.297Z,101541.81
2023-02-12T05:18:35.956Z,101541.81
2023-02-12T05:21:05.100Z,101538.66
2023-02-12T05:23:37.584Z,101526.00
2023-02-12T05:26:17.518Z,101526.50
2023-02-12T05:28:45.430Z,101524.03
2023-02-12T05:31:20.013Z,101522.84
2023-02-12T05:33:50.438Z,101527.63
2023-02-12T05:36:22.989Z,101524.97
2023-02-12T05:38:51.616Z,101525.47
2023-02-12T05:41:24.974Z,101514.66
2023-02-12T05:43:53.521Z,101510.44
2023-02-12T05:46:22.126Z,101508.03
2023-02-12T05:48:49.453Z,101516.16
2023-02-12T05:51:22.925Z,101523.47
2023-02-12T05:53:55.694Z,101513.00
2023-02-12T05:56:33.270Z,101513.88
2023-02-12T05:59:08.732Z,101516.63
2023-02-12T06:01:40.807Z,101525.56
2023-02-12T06:04:18.451Z,101536.53
2023-02-12T06:06:46.830Z,101531.91
2023-02-12T06:09:14.677Z,101539.97
2023-02-12T06:11:42.341Z,101538.66
2023-02-12T06:14:15.627Z,101536.09
2023-02-12T06:16:51.807Z,101544.72
2023-02-12T06:19:20.193Z,101547.19
2023-02-12T06:21:47.673Z,101553.38
2023-02-12T06:24:17.006Z,101554.69
2023-02-12T06:26:44.721Z,101541.66
2023-02-12T06:29:13.328Z,101545.91
2023-02-12T06:31:41.017Z,101545.69
2023-02-12T06:34:11.960Z,101547.56
2023-02-12T06:36:44.560Z,101542.75
2023-02-12T06:39:15.130Z,101540.56
2023-02-12T06:41:43.995Z,101552.81
2023-02-12T06:44:13.060Z,101556.13
2023-02-12T06:46:40.318Z,101553.75
2023-02-12T06:49:07.709Z,101559.16
2023-02-12T06:51:36.360Z,101557.00
2023-02-12T06:54:03.693Z,101564.44
2023-02-12T06:56:30.826Z,101571.75
2023-02-12T06:59:01.157Z,101578.59
2023-02-12T07:01:30.292Z,101586.66
2023-02-12T07:04:03.234Z,101592.16
2023-02-12T07:06:34.655Z,101595.34
2023-02-12T07:09:03.693Z,101586.59
2023-02-12T07:11:37.948Z,101589.56
2023-02-12T07:14:07.152Z,101594.88
2023-02-12T07:16:34.688Z,101599.44
2023-02-12T07:19:01.887Z,101600.94
2023-02-12T07:21:29.072Z,101608.66
2023-02-12T07:23:56.345Z,101610.19
2023-02-12T07:26:23.952Z,101612.81
2023-02-12T07:28:51.988Z,101613.56
2023-02-12T07:31:24.771Z,101604.63
2023-02-12T07:33:58.207Z,101597.13
2023-02-12T07:36:29.380Z,101595.13
2023-02-12T07:38:58.541Z,101599.19
2023-02-12T07:41:34.756Z,101597.91
2023-02-12T07:44:10.493Z,101607.44
2023-02-12T07:46:48.578Z,101588.31
2023-02-12T07:49:22.367Z,101605.22
2023-02-12T07:51:50.399Z,101608.34
2023-02-12T07:54:18.043Z,101608.69
2023-02-12T07:56:46.885Z,101598.19
2023-02-12T07:59:18.340Z,101595.94
2023-02-12T08:01:51.660Z,101618.53
2023-02-12T08:04:23.315Z,101612.63
2023-02-12T08:06:55.007Z,101606.16
2023-02-12T08:09:27.615Z,101606.06
2023-02-12T08:11:55.701Z,101610.41
2023-02-12T08:14:23.443Z,101613.25
2023-02-12T08:16:51.715Z,101617.53
2023-02-12T08:19:23.967Z,101621.81
2023-02-12T08:21:55.480Z,101616.56
2023-02-12T08:24:24.846Z,101611.91
2023-02-12T08:26:53.702Z,101618.44
2023-02-12T08:29:29.710Z,101612.28
2023-02-12T08:32:03.423Z,101619.47
2023-02-12T08:34:35.205Z,101619.63
2023-02-12T08:37:04.828Z,101626.13
2023-02-12T08:39:31.980Z,101633.72
2023-02-12T08:42:01.645Z,101630.59
2023-02-12T08:44:29.355Z,101632.53
2023-02-12T08:46:56.599Z,101628.06
2023-02-12T08:49:28.447Z,101636.94
2023-02-12T08:51:58.336Z,101643.09
2023-02-12T08:54:30.022Z,101637.41
2023-02-12T08:57:00.793Z,101644.47
2023-02-12T08:59:28.908Z,101640.25
2023-02-12T09:01:56.108Z,101634.88
2023-02-12T09:04:27.695Z,101636.59
2023-02-12T09:06:56.215Z,101638.59
2023-02-12T09:09:23.534Z,101638.25
2023-02-12T09:11:50.902Z,101631.88
2023-02-12T09:14:26.004Z,101634.00
2023-02-12T09:16:54.484Z,101637.56
2023-02-12T09:19:21.881Z,101635.25
2023-02-12T09:21:56.320Z,101628.75
2023-02-12T09:24:27.414Z,101637.59
2023-02-12T09:26:54.823Z,101644.09
2023-02-12T09:29:22.235Z,101653.41
2023-02-12T09:31:49.570Z,101652.53
2023-02-12T09:34:16.820Z,101655.56
2023-02-12T09:36:44.028Z,101656.06
2023-02-12T09:39:11.325Z,101659.63
2023-02-12T09:42:32.325Z,101654.03
2023-02-12T09:45:17.065Z,101656.00
2023-02-12T09:48:13.746Z,101655.72
2023-02-12T09:50:57.810Z,101663.19
2023-02-12T09:53:31.491Z,101656.75
2023-02-12T09:55:59.421Z,101661.34
2023-02-12T09:58:53.621Z,101661.22
2023-02-12T10:01:23.017Z,101669.78
2023-02-12T10:03:52.353Z,101666.03
2023-02-12T10:06:26.963Z,101661.19
2023-02-12T10:09:39.834Z,101660.22
2023-02-12T10:13:19.836Z,101665.53
2023-02-12T10:15:52.363Z,101660.84
2023-02-12T10:19:21.582Z,101660.59
2023-02-12T10:22:51.374Z,101656.44
2023-02-12T10:25:53.026Z,101663.97
2023-02-12T10:28:34.960Z,101672.22
2023-02-12T10:31:37.168Z,101656.94
2023-02-12T10:34:32.362Z,101656.41
2023-02-12T10:37:32.489Z,101647.81
2023-02-12T10:40:20.917Z,101648.34
2023-02-12T10:42:53.465Z,101649.94
2023-02-12T10:45:33.915Z,101650.44
2023-02-12T10:48:22.084Z,101642.19
2023-02-12T10:51:56.814Z,101642.31
2023-02-12T10:54:45.546Z,101632.81
2023-02-12T10:57:25.294Z,101630.69
2023-02-12T11:00:23.703Z,101638.59
2023-02-12T11:03:12.903Z,101636.09
2023-02-12T11:05:44.269Z,101630.03
2023-02-12T11:08:37.237Z,101622.28
2023-02-12T11:11:23.120Z,101623.81
2023-02-12T11:14:18.588Z,101621.09
2023-02-12T11:16:59.958Z,101608.75
2023-02-12T11:19:34.957Z,101603.97
2023-02-12T11:22:18.516Z,101607.16
2023-02-12T11:24:49.524Z,101598.19
2023-02-12T11:27:16.606Z,101596.41
2023-02-12T11:29:51.149Z,101594.66
2023-02-12T11:32:20.518Z,101591.41
2023-02-12T11:35:15.388Z,101594.97
2023-02-12T11:37:45.308Z,101594.28
2023-02-12T11:40:25.678Z,101585.38
2023-02-12T11:43:06.706Z,101573.00
2023-02-12T11:45:47.512Z,101578.72
2023-02-12T11:48:26.274Z,101576.59
2023-02-12T11:50:57.640Z,101572.69
2023-02-12T11:53:33.333Z,101572.03
2023-02-12T11:56:12.324Z,101570.66
2023-02-12T11:58:40.759Z,101573.47
2023-02-12T12:01:30.491Z,101574.78
2023-02-12T12:04:20.530Z,101571.41
2023-02-12T12:07:05.474Z,101567.03
2023-02-12T12:09:50.458Z,101563.97
2023-02-12T12:12:30.911Z,101569.16
2023-02-12T12:15:41.723Z,101569.94
2023-02-12T12:19:10.033Z,101561.06
2023-02-12T12:22:22.636Z,101557.88
2023-02-12T12:25:14.929Z,101548.47
2023-02-12T12:28:02.881Z,101558.50
2023-02-12T12:31:12.462Z,101553.75
2023-02-12T12:34:17.043Z,101550.19
2023-02-12T12:37:20.553Z,101545.47
2023-02-12T12:40:21.129Z,101535.38
2023-02-12T12:43:22.283Z,101527.69
2023-02-12T12:46:31.484Z,101531.53
2023-02-12T12:49:54.997Z,101531.31
2023-02-12T12:52:51.138Z,101532.09
2023-02-12T12:55:45.757Z,101537.59
2023-02-12T12:58:49.408Z,101530.41
2023-02-12T13:01:44.499Z,101522.47
2023-02-12T13:05:19.525Z,101525.88
2023-02-12T13:08:12.520Z,101527.69
2023-02-12T13:11:06.546Z,101520.72
2023-02-12T13:13:41.044Z,101530.06
2023-02-12T13:16:35.511Z,101525.38
2023-02-12T13:19:48.850Z,101515.06
2023-02-12T13:22:45.405Z,101523.16
2023-02-12T13:25:36.433Z,101520.91
2023-02-12T13:28:09.986Z,101516.44
2023-02-12T13:30:45.407Z,101525.00
2023-02-12T13:33:36.779Z,101530.06
2023-02-12T13:36:08.060Z,101525.78
2023-02-12T13:38:43.443Z,101528.72
2023-02-12T13:41:12.621Z,101526.06
2023-02-12T13:43:53.518Z,101529.88
2023-02-12T13:46:51.421Z,101531.06
2023-02-12T13:50:17.456Z,101536.06
2023-02-12T13:53:42.701Z,101533.34
2023-02-12T13:56:54.026Z,101534.88
2023-02-12T13:59:34.112Z,101538.63
2023-02-12T14:02:05.829Z,101547.22
2023-02-12T14:05:02.550Z,101549.13
2023-02-12T14:07:48.259Z,101546.28
2023-02-12T14:10:42.347Z,101550.47
2023-02-12T14:13:19.704Z,101551.94
2023-02-12T14:15:55.617Z,101556.38
2023-02-12T14:18:35.748Z,101559.41
2023-02-12T14:21:12.195Z,101562.63
2023-02-12T14:23:42.221Z,101567.41
2023-02-12T14:26:15.466Z,101572.09
2023-02-12T14:29:04.978Z,101564.88
2023-02-12T14:31:38.578Z,101571.16
2023-02-12T14:34:05.703Z,101569.69
2023-02-12T14:36:32.689Z,101569.94
2023-02-12T14:39:05.097Z,101574.44
2023-02-12T14:41:41.449Z,101573.00
2023-02-12T14:44:58.803Z,101574.22
2023-02-12T14:47:28.981Z,101586.66
2023-02-12T14:50:11.937Z,101587.16
2023-02-12T14:52:54.064Z,101581.97
2023-02-12T14:55:33.731Z,101587.38
2023-02-12T14:58:06.910Z,101591.22
2023-02-12T15:00:41.775Z,101592.16
2023-02-12T15:03:18.896Z,101597.19
2023-02-12T15:06:18.768Z,101600.88
2023-02-12T15:10:02.723Z,101597.97
2023-02-12T15:13:01.756Z,101603.63
2023-02-12T15:15:57.032Z,101598.78
2023-02-12T15:18:58.356Z,101600.31
2023-02-12T15:21:31.764Z,101600.88
2023-02-12T15:24:10.848Z,101605.56
2023-02-12T15:26:52.096Z,101607.25
2023-02-12T15:29:28.571Z,101614.38
2023-02-12T15:32:05.069Z,101620.63
2023-02-12T15:34:39.976Z,101615.81
2023-02-12T15:37:09.613Z,101620.06
2023-02-12T15:39:47.994Z,101629.25
2023-02-12T15:42:42.866Z,101622.81
2023-02-12T15:45:19.946Z,101622.97
2023-02-12T15:48:09.584Z,101628.94
2023-02-12T15:50:53.499Z,101619.63
2023-02-12T15:53:24.317Z,101617.63
2023-02-12T15:55:51.971Z,101611.38
2023-02-12T15:59:03.259Z,101613.69
2023-02-12T16:01:35.156Z,101613.41
2023-02-12T16:04:08.481Z,101619.22
2023-02-12T16:06:36.990Z,101626.94
2023-02-12T16:09:15.777Z,101625.53
2023-02-12T16:11:46.907Z,101627.22
2023-02-12T16:14:43.296Z,101641.16
2023-02-12T16:17:32.366Z,101644.28
2023-02-12T16:20:19.834Z,101648.31
2023-02-12T16:22:51.256Z,101652.59
2023-02-12T16:25:33.649Z,101663.44
2023-02-12T16:28:18.718Z,101663.44
2023-02-12T16:30:48.276Z,101666.88
2023-02-12T16:33:40.543Z,101668.63
2023-02-12T16:36:15.988Z,101676.97
2023-02-12T16:38:53.262Z,101679.94
2023-02-12T16:41:30.650Z,101681.63
2023-02-12T16:44:00.500Z,101687.78
2023-02-12T16:46:31.744Z,101690.28
2023-02-12T16:49:01.452Z,101695.19
2023-02-12T16:51:36.200Z,101700.00
2023-02-12T16:54:26.071Z,101717.56
2023-02-12T16:56:53.215Z,101716.38
2023-02-12T16:59:20.557Z,101721.34
2023-02-12T17:02:12.784Z,101731.53
2023-02-12T17:04:40.834Z,101735.22
2023-02-12T17:07:29.204Z,101729.78
2023-02-12T17:09:56.603Z,101738.63
2023-02-12T17:12:24.249Z,101737.84
2023-02-12T17:14:51.476Z,101752.97
2023-02-12T17:17:18.995Z,101750.19
2023-02-12T17:19:46.310Z,101760.34
2023-02-12T17:22:26.040Z,101760.75
2023-02-12T17:24:53.343Z,101758.88
2023-02-12T17:27:21.061Z,101761.97
2023-02-12T17:29:48.377Z,101765.63
2023-02-12T17:32:16.239Z,101773.03
2023-02-12T17:34:48.923Z,101770.25
2023-02-12T17:37:17.471Z,101767.09
2023-02-12T17:39:44.809Z,101774.81
2023-02-12T17:42:12.160Z,101780.69
2023-02-12T17:44:40.118Z,101784.56
2023-02-12T17:47:07.251Z,101780.16
2023-02-12T17:49:35.474Z,101789.44
2023-02-12T17:52:04.782Z,101790.31
2023-02-12T17:54:33.666Z,101798.41
2023-02-12T17:57:00.862Z,101793.13
2023-02-12T17:59:28.104Z,101802.84
2023-02-12T18:01:55.818Z,101807.41
2023-02-12T18:04:23.068Z,101809.22
2023-02-12T18:06:50.278Z,101808.38
2023-02-12T18:09:17.389Z,101807.34
2023-02-12T18:11:44.619Z,101809.59
2023-02-12T18:14:12.785Z,101822.78
2023-02-12T18:16:41.056Z,101818.28
2023-02-12T18:19:08.374Z,101815.56
2023-02-12T18:21:35.619Z,101820.47
2023-02-12T18:24:03.595Z,101827.06
2023-02-12T18:26:34.694Z,101828.06
2023-02-12T18:29:02.017Z,101833.19
2023-02-12T18:31:29.944Z,101834.75
2023-02-12T18:33:57.350Z,101832.31
2023-02-12T18:36:24.702Z,101836.34
2023-02-12T18:38:52.937Z,101830.84
2023-02-12T18:41:28.273Z,101831.91
2023-02-12T18:43:58.685Z,101831.47
2023-02-12T18:46:30.521Z,101834.53
2023-02-12T18:48:59.183Z,101837.88
2023-02-12T18:51:30.938Z,101840.94
2023-02-12T18:54:07.612Z,101838.22
2023-02-12T18:56:41.023Z,101839.91
2023-02-12T18:59:11.520Z,101838.22
2023-02-12T19:01:38.978Z,101836.06
2023-02-12T19:04:12.700Z,101845.13
2023-02-12T19:06:48.967Z,101843.41
2023-02-12T19:09:20.222Z,101842.38
2023-02-12T19:11:50.402Z,101850.31
2023-02-12T19:14:20.948Z,101849.72
2023-02-12T19:16:48.966Z,101848.34
2023-02-12T19:19:17.659Z,101852.94
2023-02-12T19:21:44.865Z,101859.78
2023-02-12T19:24:15.960Z,101859.50
2023-02-12T19:26:46.743Z,101859.34
2023-02-12T19:29:14.138Z,101862.72
2023-02-12T19:31:46.252Z,101865.00
2023-02-12T19:34:19.571Z,101858.44
2023-02-12T19:36:49.432Z,101860.41
2023-02-12T19:39:24.116Z,101868.22
2023-02-12T19:41:52.658Z,101870.81
2023-02-12T19:44:24.179Z,101865.44
2023-02-12T19:46:52.883Z,101867.75
2023-02-12T19:49:27.557Z,101868.34
2023-02-12T19:51:55.076Z,101876.16
2023-02-12T19:54:24.185Z,101875.53
2023-02-12T19:56:53.758Z,101884.50
2023-02-12T19:59:24.736Z,101887.09
2023-02-12T20:01:53.353Z,101882.06
2023-02-12T20:04:24.357Z,101885.41
2023-02-12T20:06:52.621Z,101886.16
2023-02-12T20:09:22.422Z,101888.78
2023-02-12T20:11:49.698Z,101896.56
2023-02-12T20:14:17.622Z,101896.25
2023-02-12T20:16:46.675Z,101894.28
2023-02-12T20:19:23.252Z,101902.06
2023-02-12T20:21:56.512Z,101894.44
2023-02-12T20:24:29.722Z,101904.50
2023-02-12T20:27:00.345Z,101899.00
2023-02-12T20:29:28.685Z,101910.31
2023-02-12T20:31:56.427Z,101913.00
2023-02-12T20:34:23.716Z,101910.47
2023-02-12T20:36:51.039Z,101917.00
2023-02-12T20:39:20.800Z,101925.81
2023-02-12T20:41:49.126Z,101923.38
2023-02-12T20:44:21.345Z,101926.75
2023-02-12T20:46:55.704Z,101919.09
2023-02-12T20:49:25.590Z,101924.56
2023-02-12T20:51:53.153Z,101926.66
2023-02-12T20:54:20.969Z,101927.88
2023-02-12T20:56:50.593Z,101935.34
2023-02-12T20:59:18.778Z,101929.06
2023-02-12T21:01:46.784Z,101937.63
2023-02-12T21:04:17.966Z,101932.84
2023-02-12T21:06:47.309Z,101936.00
2023-02-12T21:09:15.355Z,101938.78
2023-02-12T21:11:45.468Z,101944.84
2023-02-12T21:14:23.889Z,101945.50
2023-02-12T21:16:54.845Z,101945.13
2023-02-12T21:19:24.640Z,101943.44
2023-02-12T21:21:52.276Z,101942.16
2023-02-12T21:24:24.516Z,101943.00
2023-02-12T21:26:54.955Z,101943.53
2023-02-12T21:29:23.270Z,101954.38
2023-02-12T21:31:51.550Z,101946.94
2023-02-12T21:34:23.416Z,101946.13
2023-02-12T21:36:54.718Z,101944.44
2023-02-12T21:39:27.242Z,101941.19
2023-02-12T21:42:00.883Z,101948.66
2023-02-12T21:44:28.997Z,101948.41
2023-02-12T21:46:57.098Z,101952.38
2023-02-12T21:49:25.122Z,101956.31
2023-02-12T21:52:06.438Z,101955.66
2023-02-12T21:54:33.926Z,101958.75
2023-02-12T21:57:01.235Z,101961.28
2023-02-12T21:59:31.576Z,101965.69
2023-02-12T22:02:00.651Z,101969.13
2023-02-12T22:04:28.059Z,101979.28
2023-02-12T22:06:57.899Z,101978.09
2023-02-12T22:09:25.361Z,101985.94
2023-02-12T22:11:53.617Z,101989.91
2023-02-12T22:14:22.232Z,101990.13
2023-02-12T22:16:50.436Z,101994.31
2023-02-12T22:19:17.810Z,101992.75
2023-02-12T22:21:45.431Z,101997.00
2023-02-12T22:24:16.012Z,101997.19
2023-02-12T22:26:44.826Z,102002.13
2023-02-12T22:29:15.779Z,102008.25
2023-02-12T22:31:46.552Z,102009.53
2023-02-12T22:34:19.111Z,102009.69
2023-02-12T22:36:47.637Z,102017.91
2023-02-12T22:39:15.251Z,102024.25
2023-02-12T22:41:43.069Z,102022.97
2023-02-12T22:44:12.897Z,102028.16
2023-02-12T22:46:42.957Z,102026.59
2023-02-12T22:49:10.414Z,102028.00
2023-02-12T22:51:39.495Z,102032.44
2023-02-12T22:54:14.718Z,102037.34
2023-02-12T22:56:43.067Z,102039.75
2023-02-12T22:59:12.029Z,102042.19
2023-02-12T23:01:39.799Z,102050.28
2023-02-12T23:04:07.435Z,102054.06
2023-02-12T23:06:34.711Z,102060.31
2023-02-12T23:09:04.936Z,102054.78
2023-02-12T23:11:33.814Z,102064.81
2023-02-12T23:14:02.025Z,102060.06
2023-02-12T23:16:29.460Z,102065.16
2023-02-12T23:19:01.858Z,102063.78
2023-02-12T23:21:32.439Z,102066.63
2023-02-12T23:24:00.187Z,102070.94
2023-02-12T23:26:29.459Z,102067.59
2023-02-12T23:28:57.453Z,102067.66
2023-02-12T23:31:25.770Z,102069.41
2023-02-12T23:33:53.008Z,102069.69
2023-02-12T23:36:20.154Z,102074.22
2023-02-12T23:38:47.285Z,102070.59
2023-02-12T23:41:15.025Z,102072.53
2023-02-12T23:43:42.330Z,102078.47
2023-02-12T23:46:09.713Z,102083.28
2023-02-12T23:48:37.335Z,102079.34
2023-02-12T23:51:05.301Z,102082.91
2023-02-12T23:53:32.460Z,102090.81
2023-02-12T23:55:59.585Z,102090.84
2023-02-12T23:58:26.948Z,102086.78
